WetterOnline ( https://www.wetteronline.de )

Wetter aktuell Seelow

Aktuelles Wetter: Manschnow (16m)

6-stündlich | Neueste Meldungen
Ortszeit Temperatur Wetter
So, 16.05. 2:00 9.1° C wolkig
Sa, 15.05. 20:00 14.6° C bedeckt
Sa, 15.05. 14:00 17.0° C bewölkt
Sa, 15.05. 8:00 10.1° C leicht bewölkt
Sa, 15.05. 2:00 6.2° C leicht bewölkt
Fr, 14.05. 20:00 11.0° C bewölkt
Fr, 14.05. 14:00 11.6° C bedeckt
Fr, 14.05. 8:00 11.3° C leichter Regen
Ortszeit Temperatur Wetter
So, 16.05. 3:30 10.1° C bedeckt
So, 16.05. 3:20 10.1° C bedeckt
So, 16.05. 3:10 9.8° C bedeckt
So, 16.05. 3:00 9.4° C bewölkt
So, 16.05. 2:50 9.4° C bewölkt
So, 16.05. 2:40 9.2° C wolkig
So, 16.05. 2:30 9.1° C wolkig
So, 16.05. 2:00 9.1° C wolkig
Ortszeit Relative Feuchte Sichtweite
So, 16.05. 2:00 95% 35 km
Sa, 15.05. 20:00 70% >70 km
Sa, 15.05. 14:00 60% 60 km
Sa, 15.05. 8:00 85% 40 km
Sa, 15.05. 2:00 95% 27 km
Fr, 14.05. 20:00 83% >70 km
Fr, 14.05. 14:00 86% 60 km
Fr, 14.05. 8:00 94% 35 km
Ortszeit Relative Feuchte Sichtweite
So, 16.05. 3:30 94% 40 km
So, 16.05. 3:20 94% -
So, 16.05. 3:10 94% -
So, 16.05. 3:00 95% 35 km
So, 16.05. 2:50 95% -
So, 16.05. 2:40 94% -
So, 16.05. 2:30 95% 26 km
So, 16.05. 2:00 95% 35 km
Ortszeit Niederschlagsmenge Niederschlagsart
So, 16.05. 2:00 4 l/m2 in 6 Std. Regen
Sa, 15.05. 20:00 0.1 l/m2 in 12 Std. Regen
Sa, 15.05. 14:00 0.1 l/m2 in 6 Std. Regen
Sa, 15.05. 8:00 0.1 l/m2 in 12 Std. -
Sa, 15.05. 2:00 0.1 l/m2 in 6 Std. Regen
Fr, 14.05. 20:00 0.4 l/m2 in 12 Std. Sprühregen
Fr, 14.05. 14:00 0.4 l/m2 in 6 Std. Regen
Fr, 14.05. 8:00 0.6 l/m2 in 12 Std. Regen
Ortszeit Niederschlagsmenge Niederschlagsart
So, 16.05. 3:30 0.0 l/m2 in 1 Std. -
So, 16.05. 3:20 keine Meldung -
So, 16.05. 3:10 keine Meldung -
So, 16.05. 3:00 0.0 l/m2 in 1 Std. -
So, 16.05. 2:50 keine Meldung -
So, 16.05. 2:40 keine Meldung -
So, 16.05. 2:30 0.0 l/m2 in 1 Std. -
So, 16.05. 2:00 0.0 l/m2 in 1 Std. Regen
Ortszeit Stärke Spitze Richtung
km/h Bft. km/h Grad Sektor
So, 16.05. 2:00 9 2 52 130° SO
Sa, 15.05. 20:00 7 2 43 160° S
Sa, 15.05. 14:00 11 2 25 230° SW
Sa, 15.05. 8:00 7 2 11 140° SO
Sa, 15.05. 2:00 6 1 26 220° SW
Fr, 14.05. 20:00 14 3 40 270° W
Fr, 14.05. 14:00 19 3 31 260° W
Fr, 14.05. 8:00 11 2 22 270° W
Ortszeit Stärke Spitze Richtung
km/h Bft. km/h Grad Sektor
So, 16.05. 3:30 7 2 14 170° S
So, 16.05. 3:20 7 2 - 170° S
So, 16.05. 3:10 7 2 - 160° S
So, 16.05. 3:00 7 2 14 160° S
So, 16.05. 2:50 7 2 - 160° S
So, 16.05. 2:40 7 2 - 160° S
So, 16.05. 2:30 6 1 13 160° S
So, 16.05. 2:00 9 2 15 130° SO
Ortszeit Untergrenze Bedeckung Gattung
total tief tief mittel hoch
So, 16.05. 2:00 5100 m 6/8 6/8 - - -
Sa, 15.05. 20:00 4200 m 8/8 8/8 - - -
Sa, 15.05. 14:00 1500 m 8/8 4/8 - - -
Sa, 15.05. 8:00 1380 m 4/8 4/8 - - -
Sa, 15.05. 2:00 1350 m 3/8 4/8 - - -
Fr, 14.05. 20:00 540 m 8/8 7/8 - - -
Fr, 14.05. 14:00 390 m 8/8 8/8 - - -
Fr, 14.05. 8:00 270 m 8/8 8/8 - - -
Ortszeit Bedeckungsgrad in Achtel und Wolkenuntergrenze
So, 16.05. 3:30 3(1500m) 6(2100m) 8(2700m)
So, 16.05. 3:20 3(1500m) 6(2100m) 8(2700m)
So, 16.05. 3:10 4(1500m) 8(2400m) 8(4200m)
So, 16.05. 3:00 4(1500m) 4(2400m) 8(4200m)
So, 16.05. 2:50 4(1500m) 4(2400m) 8(4200m)
So, 16.05. 2:40 1(2400m) 8(4500m) 8(6000m)
So, 16.05. 2:30 1(2400m) 8(5700m) 8(6300m)
So, 16.05. 2:00 1(5100m) 6(6000m) 6(6600m)
Ortszeit Luftdruck NN (hPa) Tendenz (hPa in 3 Std.)
So, 16.05. 2:00 1004 - 0,7
Sa, 15.05. 20:00 1004 - 1,0
Sa, 15.05. 14:00 1006 - 1,1
Sa, 15.05. 8:00 1008 + 0,2
Sa, 15.05. 2:00 1008 + 0,3
Fr, 14.05. 20:00 1007 + 0,3
Fr, 14.05. 14:00 1005 + 0,9
Fr, 14.05. 8:00 1003 + 0,5
Ortszeit Luftdruck NN (hPa) Tendenz (hPa in 3 Std.)
So, 16.05. 3:30 1003 - 0,7
So, 16.05. 3:20 1003 keine Meldung
So, 16.05. 3:10 1003 keine Meldung
So, 16.05. 3:00 1003 - 0,9
So, 16.05. 2:50 1003 keine Meldung
So, 16.05. 2:40 1003 keine Meldung
So, 16.05. 2:30 1004 - 0,6
So, 16.05. 2:00 1004 - 0,7
Ortszeit Schneehöhe (cm)
So, 16.05. 2:00 0
Sa, 15.05. 20:00 0
Sa, 15.05. 14:00 0
Sa, 15.05. 8:00 0
Sa, 15.05. 2:00 0
Fr, 14.05. 20:00 0
Fr, 14.05. 14:00 0
Fr, 14.05. 8:00 0
Ortszeit Schneehöhe (cm)
So, 16.05. 3:30 0
So, 16.05. 3:20 0
So, 16.05. 3:10 0
So, 16.05. 3:00 0
So, 16.05. 2:50 0
So, 16.05. 2:40 0
So, 16.05. 2:30 0
So, 16.05. 2:00 0
Link zu dieser Seite / Seite empfehlen

Das Wetter in ...